createdAt,value
2023-05-18T00:00:18.064Z,44.92
2023-05-18T00:02:45.046Z,44.87
2023-05-18T00:05:12.074Z,44.97
2023-05-18T00:07:39.357Z,45.22
2023-05-18T00:10:07.565Z,45.27
2023-05-18T00:12:35.071Z,45.09
2023-05-18T00:15:02.229Z,45.36
2023-05-18T00:17:29.505Z,45.00
2023-05-18T00:19:58.561Z,45.38
2023-05-18T00:22:26.432Z,45.45
2023-05-18T00:24:53.797Z,45.44
2023-05-18T00:27:20.645Z,45.61
2023-05-18T00:29:47.518Z,45.37
2023-05-18T00:32:14.372Z,45.10
2023-05-18T00:34:41.327Z,45.36
2023-05-18T00:37:08.248Z,45.67
2023-05-18T00:39:35.346Z,45.23
2023-05-18T00:42:03.096Z,45.33
2023-05-18T00:44:30.011Z,45.58
2023-05-18T00:46:56.878Z,45.71
2023-05-18T00:49:23.917Z,45.33
2023-05-18T00:51:51.577Z,45.42
2023-05-18T00:54:19.412Z,45.25
2023-05-18T00:56:48.455Z,45.65
2023-05-18T00:59:16.115Z,45.42
2023-05-18T01:01:46.685Z,45.71
2023-05-18T01:04:16.330Z,45.58
2023-05-18T01:06:43.690Z,45.30
2023-05-18T01:09:12.128Z,45.53
2023-05-18T01:12:12.056Z,46.08
2023-05-18T01:14:42.644Z,45.35
2023-05-18T01:17:37.606Z,45.61
2023-05-18T01:20:18.415Z,45.68
2023-05-18T01:23:29.727Z,46.07
2023-05-18T01:25:56.726Z,46.42
2023-05-18T01:28:32.550Z,46.23
2023-05-18T01:31:00.629Z,46.30
2023-05-18T01:33:27.538Z,46.60
2023-05-18T01:35:54.912Z,46.38
2023-05-18T01:38:25.727Z,46.50
2023-05-18T01:41:08.793Z,46.88
2023-05-18T01:43:38.274Z,46.50
2023-05-18T01:46:17.044Z,46.41
2023-05-18T01:48:54.500Z,46.46
2023-05-18T01:51:22.591Z,46.23
2023-05-18T01:54:03.715Z,46.52
2023-05-18T01:56:32.688Z,46.50
2023-05-18T01:58:59.981Z,46.58
2023-05-18T02:01:27.033Z,46.26
2023-05-18T02:03:54.348Z,46.86
2023-05-18T02:06:21.558Z,46.16
2023-05-18T02:08:49.006Z,46.94
2023-05-18T02:11:18.190Z,46.72
2023-05-18T02:13:45.279Z,46.79
2023-05-18T02:16:13.795Z,46.67
2023-05-18T02:18:40.786Z,46.47
2023-05-18T02:21:10.055Z,46.51
2023-05-18T02:23:37.043Z,46.75
2023-05-18T02:26:03.960Z,46.72
2023-05-18T02:28:31.190Z,46.52
2023-05-18T02:31:11.933Z,46.82
2023-05-18T02:33:42.186Z,46.75
2023-05-18T02:36:13.971Z,46.66
2023-05-18T02:38:43.637Z,46.91
2023-05-18T02:41:12.193Z,46.66
2023-05-18T02:43:39.992Z,46.41
2023-05-18T02:46:08.314Z,46.48
2023-05-18T02:48:35.688Z,46.32
2023-05-18T02:51:02.609Z,46.30
2023-05-18T02:53:29.549Z,46.56
2023-05-18T02:56:03.876Z,46.71
2023-05-18T02:58:44.738Z,46.33
2023-05-18T03:01:21.269Z,46.33
2023-05-18T03:03:53.551Z,46.45
2023-05-18T03:06:26.580Z,46.72
2023-05-18T03:08:55.354Z,46.51
2023-05-18T03:11:26.961Z,46.80
2023-05-18T03:13:54.739Z,47.22
2023-05-18T03:16:21.632Z,46.84
2023-05-18T03:18:48.524Z,46.56
2023-05-18T03:21:16.550Z,46.80
2023-05-18T03:23:43.525Z,47.03
2023-05-18T03:26:11.732Z,47.07
2023-05-18T03:28:39.590Z,47.32
2023-05-18T03:31:07.042Z,47.22
2023-05-18T03:33:34.619Z,47.29
2023-05-18T03:36:05.014Z,47.34
2023-05-18T03:38:32.412Z,47.97
2023-05-18T03:41:05.078Z,47.63
2023-05-18T03:43:32.730Z,47.60
2023-05-18T03:46:01.403Z,47.75
2023-05-18T03:48:30.058Z,47.37
2023-05-18T03:50:57.653Z,47.59
2023-05-18T03:53:27.468Z,47.78
2023-05-18T03:55:54.380Z,47.51
2023-05-18T03:58:21.369Z,47.47
2023-05-18T04:00:49.492Z,47.46
2023-05-18T04:03:16.994Z,47.32
2023-05-18T04:05:44.720Z,47.25
2023-05-18T04:08:14.554Z,47.65
2023-05-18T04:10:43.389Z,47.72
2023-05-18T04:13:10.892Z,47.80
2023-05-18T04:15:38.285Z,47.61
2023-05-18T04:18:05.426Z,47.73
2023-05-18T04:20:32.411Z,47.99
2023-05-18T04:23:01.163Z,47.75
2023-05-18T04:25:28.588Z,47.83
2023-05-18T04:27:56.932Z,48.22
2023-05-18T04:30:29.596Z,48.12
2023-05-18T04:32:58.210Z,48.00
2023-05-18T04:35:26.634Z,48.17
2023-05-18T04:37:54.586Z,48.34
2023-05-18T04:40:22.422Z,47.90
2023-05-18T04:42:49.866Z,47.86
2023-05-18T04:45:26.016Z,48.52
2023-05-18T04:47:54.817Z,47.85
2023-05-18T04:50:26.235Z,47.85
2023-05-18T04:52:53.992Z,48.08
2023-05-18T04:55:26.195Z,48.37
2023-05-18T04:58:00.739Z,48.18
2023-05-18T05:00:30.046Z,48.32
2023-05-18T05:02:58.645Z,48.47
2023-05-18T05:05:27.093Z,48.70
2023-05-18T05:07:55.554Z,48.77
2023-05-18T05:10:22.746Z,48.63
2023-05-18T05:12:52.782Z,49.37
2023-05-18T05:15:20.537Z,48.98
2023-05-18T05:17:49.985Z,49.08
2023-05-18T05:20:17.508Z,49.29
2023-05-18T05:22:45.178Z,49.00
2023-05-18T05:25:15.830Z,49.38
2023-05-18T05:27:43.025Z,49.18
2023-05-18T05:30:10.625Z,49.18
2023-05-18T05:32:39.210Z,49.44
2023-05-18T05:35:07.525Z,49.77
2023-05-18T05:37:36.293Z,49.91
2023-05-18T05:40:06.350Z,49.89
2023-05-18T05:42:37.671Z,50.60
2023-05-18T05:45:06.058Z,50.24
2023-05-18T05:47:38.322Z,50.11
2023-05-18T05:50:06.533Z,50.46
2023-05-18T05:52:34.544Z,50.57
2023-05-18T05:55:02.359Z,50.19
2023-05-18T05:57:30.725Z,50.55
2023-05-18T05:59:57.836Z,50.57
2023-05-18T06:02:26.374Z,50.75
2023-05-18T06:04:54.665Z,50.46
2023-05-18T06:07:21.940Z,50.60
2023-05-18T06:09:50.372Z,50.25
2023-05-18T06:12:18.585Z,50.11
2023-05-18T06:14:45.608Z,50.04
2023-05-18T06:17:12.891Z,49.66
2023-05-18T06:19:39.938Z,49.31
2023-05-18T06:22:07.045Z,49.14
2023-05-18T06:24:43.088Z,48.91
2023-05-18T06:27:25.780Z,48.55
2023-05-18T06:30:10.860Z,48.51
2023-05-18T06:32:57.567Z,48.73
2023-05-18T06:35:24.998Z,48.19
2023-05-18T06:37:52.105Z,47.98
2023-05-18T06:40:20.541Z,47.82
2023-05-18T06:42:47.606Z,47.59
2023-05-18T06:45:25.174Z,47.52
2023-05-18T06:47:55.379Z,47.26
2023-05-18T06:50:23.228Z,46.97
2023-05-18T06:52:51.477Z,46.82
2023-05-18T06:55:20.682Z,46.52
2023-05-18T06:57:48.223Z,46.48
2023-05-18T07:00:16.659Z,46.04
2023-05-18T07:02:45.574Z,46.06
2023-05-18T07:05:12.685Z,46.04
2023-05-18T07:07:39.660Z,45.74
2023-05-18T07:10:07.547Z,45.54
2023-05-18T07:12:34.673Z,45.47
2023-05-18T07:15:01.751Z,45.28
2023-05-18T07:17:28.963Z,45.24
2023-05-18T07:19:57.355Z,45.29
2023-05-18T07:22:24.325Z,45.02
2023-05-18T07:24:51.166Z,45.11
2023-05-18T07:27:18.053Z,44.77
2023-05-18T07:29:44.900Z,44.83
2023-05-18T07:32:11.827Z,45.02
2023-05-18T07:34:38.917Z,44.62
2023-05-18T07:37:07.134Z,44.64
2023-05-18T07:39:38.825Z,44.57
2023-05-18T07:42:06.322Z,44.66
2023-05-18T07:44:33.432Z,44.48
2023-05-18T07:47:00.506Z,44.45
2023-05-18T07:49:27.680Z,44.33
2023-05-18T07:51:54.530Z,43.88
2023-05-18T07:54:21.919Z,43.70
2023-05-18T07:56:49.112Z,43.67
2023-05-18T07:59:16.345Z,43.72
2023-05-18T08:01:44.913Z,43.88
2023-05-18T08:04:12.071Z,43.68
2023-05-18T08:06:39.062Z,43.48
2023-05-18T08:09:06.550Z,43.57
2023-05-18T08:11:33.700Z,43.24
2023-05-18T08:14:00.968Z,43.24
2023-05-18T08:16:28.198Z,43.04
2023-05-18T08:18:55.218Z,43.16
2023-05-18T08:21:22.339Z,42.83
2023-05-18T08:23:49.202Z,42.78
2023-05-18T08:26:16.064Z,42.96
2023-05-18T08:28:43.844Z,42.61
2023-05-18T08:31:12.294Z,42.35
2023-05-18T08:33:39.565Z,42.31
2023-05-18T08:36:06.904Z,42.27
2023-05-18T08:38:33.803Z,42.30
2023-05-18T08:41:30.654Z,41.91
2023-05-18T08:44:06.880Z,41.72
2023-05-18T08:46:42.691Z,41.57
2023-05-18T08:49:11.032Z,41.56
2023-05-18T08:51:38.682Z,41.41
2023-05-18T08:54:08.357Z,41.29
2023-05-18T08:56:36.000Z,41.43
2023-05-18T08:59:08.474Z,41.44
2023-05-18T09:01:36.047Z,41.07
2023-05-18T09:04:03.854Z,40.66
2023-05-18T09:06:32.900Z,40.75
2023-05-18T09:09:04.262Z,40.67
2023-05-18T09:11:34.018Z,40.57
2023-05-18T09:14:01.318Z,40.27
2023-05-18T09:16:29.023Z,39.92
2023-05-18T09:18:56.097Z,39.82
2023-05-18T09:21:23.014Z,39.70
2023-05-18T09:23:51.393Z,39.77
2023-05-18T09:26:21.803Z,39.22
2023-05-18T09:28:53.708Z,39.26
2023-05-18T09:31:24.557Z,38.97
2023-05-18T09:33:52.672Z,38.49
2023-05-18T09:36:26.181Z,38.63
2023-05-18T09:38:53.540Z,38.50
2023-05-18T09:41:20.489Z,38.20
2023-05-18T09:43:51.470Z,37.91
2023-05-18T09:46:20.963Z,37.87
2023-05-18T09:48:52.221Z,37.92
2023-05-18T09:51:21.045Z,37.37
2023-05-18T09:53:56.401Z,36.82
2023-05-18T09:56:25.111Z,37.20
2023-05-18T09:58:52.419Z,37.13
2023-05-18T10:01:19.993Z,36.71
2023-05-18T10:03:48.495Z,36.71
2023-05-18T10:06:19.951Z,36.68
2023-05-18T10:08:47.034Z,36.73
2023-05-18T10:11:19.949Z,36.19
2023-05-18T10:13:47.920Z,36.49
2023-05-18T10:16:16.824Z,36.25
2023-05-18T10:18:44.214Z,35.82
2023-05-18T10:21:14.399Z,35.96
2023-05-18T10:23:42.577Z,35.60
2023-05-18T10:26:10.290Z,34.92
2023-05-18T10:28:42.696Z,35.03
2023-05-18T10:31:10.081Z,35.36
2023-05-18T10:33:38.021Z,35.48
2023-05-18T10:36:07.342Z,34.88
2023-05-18T10:38:38.862Z,34.22
2023-05-18T10:41:06.494Z,34.60
2023-05-18T10:43:34.171Z,34.31
2023-05-18T10:46:01.702Z,33.87
2023-05-18T10:48:29.872Z,33.41
2023-05-18T10:50:58.348Z,33.63
2023-05-18T10:53:29.466Z,33.10
2023-05-18T10:55:56.566Z,33.61
2023-05-18T10:58:27.168Z,32.88
2023-05-18T11:01:09.161Z,32.62
2023-05-18T11:03:38.389Z,32.68
2023-05-18T11:06:14.751Z,32.83
2023-05-18T11:08:50.366Z,31.92
2023-05-18T11:11:19.576Z,31.89
2023-05-18T11:13:51.619Z,32.07
2023-05-18T11:16:20.585Z,31.82
2023-05-18T11:18:50.836Z,31.37
2023-05-18T11:21:32.508Z,31.75
2023-05-18T11:24:35.517Z,31.56
2023-05-18T11:27:19.504Z,31.78
2023-05-18T11:29:47.675Z,31.42
2023-05-18T11:32:30.486Z,30.89
2023-05-18T11:34:59.155Z,30.58
2023-05-18T11:37:38.167Z,30.37
2023-05-18T11:40:44.656Z,30.39
2023-05-18T11:43:24.909Z,29.87
2023-05-18T11:46:00.860Z,29.40
2023-05-18T11:48:30.314Z,29.66
2023-05-18T11:50:57.516Z,29.75
2023-05-18T11:53:26.724Z,29.29
2023-05-18T11:55:54.701Z,29.52
2023-05-18T11:58:25.361Z,29.12
2023-05-18T12:00:55.407Z,28.95
2023-05-18T12:03:26.464Z,30.40
2023-05-18T12:05:54.114Z,29.08
2023-05-18T12:08:21.820Z,29.05
2023-05-18T12:10:54.066Z,28.21
2023-05-18T12:13:22.508Z,28.57
2023-05-18T12:15:51.755Z,28.47
2023-05-18T12:18:19.450Z,28.08
2023-05-18T12:20:49.711Z,27.82
2023-05-18T12:23:16.564Z,27.50
2023-05-18T12:25:43.389Z,27.35
2023-05-18T12:28:10.496Z,27.11
2023-05-18T12:30:38.644Z,26.93
2023-05-18T12:33:06.962Z,27.38
2023-05-18T12:35:35.175Z,28.06
2023-05-18T12:38:03.024Z,26.91
2023-05-18T12:40:46.617Z,26.44
2023-05-18T12:43:13.738Z,26.81
2023-05-18T12:45:41.121Z,26.73
2023-05-18T12:48:10.866Z,27.05
2023-05-18T12:50:50.928Z,26.78
2023-05-18T12:53:18.366Z,26.80
2023-05-18T12:55:45.518Z,26.86
2023-05-18T12:58:19.856Z,26.42
2023-05-18T13:00:48.795Z,26.48
2023-05-18T13:03:22.054Z,26.08
2023-05-18T13:06:06.014Z,26.14
2023-05-18T13:08:34.833Z,26.57
2023-05-18T13:11:14.231Z,26.50
2023-05-18T13:14:02.294Z,25.58
2023-05-18T13:16:30.508Z,25.43
2023-05-18T13:19:00.076Z,25.80
2023-05-18T13:21:27.734Z,25.71
2023-05-18T13:23:54.916Z,25.75
2023-05-18T13:26:23.345Z,26.51
2023-05-18T13:28:53.712Z,26.53
2023-05-18T13:31:20.915Z,26.24
2023-05-18T13:33:49.596Z,26.30
2023-05-18T13:36:17.862Z,25.56
2023-05-18T13:38:44.814Z,25.49
2023-05-18T13:41:14.773Z,25.03
2023-05-18T13:43:42.741Z,25.91
2023-05-18T13:46:09.810Z,25.77
2023-05-18T13:48:36.891Z,25.79
2023-05-18T13:51:03.993Z,25.58
2023-05-18T13:53:32.266Z,26.21
2023-05-18T13:55:59.188Z,26.20
2023-05-18T13:58:26.137Z,26.77
2023-05-18T14:00:54.378Z,26.33
2023-05-18T14:03:21.638Z,26.40
2023-05-18T14:05:48.751Z,26.42
2023-05-18T14:08:15.658Z,26.04
2023-05-18T14:10:42.625Z,26.12
2023-05-18T14:13:09.549Z,25.89
2023-05-18T14:15:36.623Z,25.93
2023-05-18T14:18:04.708Z,26.00
2023-05-18T14:20:32.021Z,25.94
2023-05-18T14:23:00.186Z,25.35
2023-05-18T14:25:27.274Z,25.29
2023-05-18T14:27:54.291Z,25.30
2023-05-18T14:30:21.254Z,25.77
2023-05-18T14:32:48.447Z,25.39
2023-05-18T14:35:15.670Z,25.26
2023-05-18T14:37:42.635Z,24.53
2023-05-18T14:40:10.755Z,24.64
2023-05-18T14:42:38.134Z,24.17
2023-05-18T14:45:05.579Z,24.76
2023-05-18T14:47:32.484Z,24.78
2023-05-18T14:49:59.349Z,24.79
2023-05-18T14:52:26.273Z,24.96
2023-05-18T14:54:54.664Z,24.07
2023-05-18T14:57:21.547Z,24.21
2023-05-18T14:59:48.481Z,24.01
2023-05-18T15:02:16.077Z,24.32
2023-05-18T15:04:44.565Z,24.40
2023-05-18T15:07:11.801Z,24.74
2023-05-18T15:09:38.696Z,24.66
2023-05-18T15:12:05.968Z,24.94
2023-05-18T15:14:32.955Z,25.22
2023-05-18T15:16:59.850Z,24.63
2023-05-18T15:19:26.984Z,24.94
2023-05-18T15:21:54.023Z,24.84
2023-05-18T15:24:21.063Z,24.81
2023-05-18T15:26:48.137Z,24.40
2023-05-18T15:29:15.073Z,24.73
2023-05-18T15:31:42.078Z,24.67
2023-05-18T15:34:09.093Z,24.52
2023-05-18T15:36:37.074Z,24.55
2023-05-18T15:39:05.105Z,25.31
2023-05-18T15:41:35.427Z,24.95
2023-05-18T15:44:02.447Z,25.10
2023-05-18T15:46:32.268Z,25.30
2023-05-18T15:48:59.204Z,25.72
2023-05-18T15:51:26.196Z,25.57
2023-05-18T15:53:53.457Z,25.79
2023-05-18T15:56:21.938Z,26.16
2023-05-18T15:58:48.894Z,26.27
2023-05-18T16:01:15.784Z,26.09
2023-05-18T16:03:43.757Z,26.15
2023-05-18T16:06:10.802Z,25.63
2023-05-18T16:08:37.728Z,25.70
2023-05-18T16:11:06.917Z,25.47
2023-05-18T16:13:33.900Z,25.52
2023-05-18T16:16:00.919Z,25.70
2023-05-18T16:18:27.926Z,25.69
2023-05-18T16:20:54.984Z,25.45
2023-05-18T16:23:21.910Z,25.26
2023-05-18T16:25:48.917Z,25.53
2023-05-18T16:28:15.859Z,25.53
2023-05-18T16:30:42.806Z,25.76
2023-05-18T16:33:09.763Z,26.09
2023-05-18T16:35:36.766Z,25.97
2023-05-18T16:38:03.682Z,25.59
2023-05-18T16:40:30.863Z,26.13
2023-05-18T16:42:58.074Z,25.93
2023-05-18T16:45:26.989Z,26.14
2023-05-18T16:47:54.285Z,26.56
2023-05-18T16:50:21.197Z,26.63
2023-05-18T16:52:48.128Z,26.85
2023-05-18T16:55:15.922Z,26.81
2023-05-18T16:57:43.346Z,26.83
2023-05-18T17:00:11.378Z,27.11
2023-05-18T17:02:38.911Z,27.26
2023-05-18T17:05:08.626Z,27.45
2023-05-18T17:07:37.157Z,27.49
2023-05-18T17:10:05.307Z,27.25
2023-05-18T17:12:33.476Z,27.18
2023-05-18T17:15:02.475Z,27.31
2023-05-18T17:17:29.380Z,27.31
2023-05-18T17:19:56.308Z,27.76
2023-05-18T17:22:23.198Z,27.72
2023-05-18T17:24:50.147Z,27.54
2023-05-18T17:27:17.040Z,27.38
2023-05-18T17:29:43.934Z,27.90
2023-05-18T17:32:11.031Z,27.69
2023-05-18T17:34:37.873Z,27.69
2023-05-18T17:37:04.957Z,27.93
2023-05-18T17:39:32.122Z,28.24
2023-05-18T17:42:00.119Z,28.17
2023-05-18T17:44:27.314Z,28.39
2023-05-18T17:46:54.256Z,28.44
2023-05-18T17:49:21.511Z,28.35
2023-05-18T17:51:48.679Z,28.57
2023-05-18T17:54:15.618Z,28.46
2023-05-18T17:56:42.589Z,28.40
2023-05-18T17:59:09.814Z,28.70
2023-05-18T18:01:37.993Z,28.88
2023-05-18T18:04:05.120Z,28.50
2023-05-18T18:06:35.420Z,28.82
2023-05-18T18:09:04.660Z,28.94
2023-05-18T18:11:32.080Z,28.98
2023-05-18T18:13:59.875Z,29.06
2023-05-18T18:16:27.010Z,29.11
2023-05-18T18:18:54.263Z,28.76
2023-05-18T18:21:21.113Z,28.80
2023-05-18T18:23:47.999Z,28.80
2023-05-18T18:26:14.931Z,28.84
2023-05-18T18:28:41.851Z,28.98
2023-05-18T18:31:09.122Z,29.41
2023-05-18T18:33:36.241Z,29.09
2023-05-18T18:36:05.517Z,29.02
2023-05-18T18:38:33.804Z,29.10
2023-05-18T18:41:04.216Z,28.81
2023-05-18T18:43:31.687Z,28.89
2023-05-18T18:45:59.412Z,29.01
2023-05-18T18:48:26.646Z,29.07
2023-05-18T18:50:53.950Z,29.00
2023-05-18T18:53:20.842Z,29.23
2023-05-18T18:55:47.939Z,28.94
2023-05-18T18:58:15.054Z,29.22
2023-05-18T19:00:42.159Z,29.24
2023-05-18T19:03:10.133Z,28.99
2023-05-18T19:05:37.993Z,29.19
2023-05-18T19:08:05.530Z,29.21
2023-05-18T19:10:41.624Z,29.19
2023-05-18T19:13:08.713Z,29.33
2023-05-18T19:15:36.543Z,29.45
2023-05-18T19:18:09.378Z,29.40
2023-05-18T19:20:39.654Z,29.61
2023-05-18T19:23:18.482Z,29.69
2023-05-18T19:25:48.379Z,29.74
2023-05-18T19:28:17.627Z,29.59
2023-05-18T19:30:44.955Z,29.63
2023-05-18T19:33:12.345Z,29.60
2023-05-18T19:42:29.996Z,29.83
2023-05-18T19:45:02.185Z,29.89
2023-05-18T19:47:29.252Z,29.72
2023-05-18T19:49:56.409Z,29.67
2023-05-18T19:52:28.580Z,29.66
2023-05-18T19:54:56.200Z,30.17
2023-05-18T19:57:23.143Z,30.19
2023-05-18T19:59:50.028Z,29.98
2023-05-18T20:02:16.967Z,30.37
2023-05-18T20:04:44.153Z,30.19
2023-05-18T20:07:12.685Z,30.25
2023-05-18T20:09:42.002Z,30.24
2023-05-18T20:12:11.016Z,30.47
2023-05-18T20:14:43.357Z,30.33
2023-05-18T20:17:10.395Z,30.40
2023-05-18T20:19:37.773Z,30.33
2023-05-18T20:22:12.201Z,30.54
2023-05-18T20:24:44.948Z,30.56
2023-05-18T20:27:15.167Z,30.52
2023-05-18T20:29:42.371Z,30.98
2023-05-18T20:32:11.933Z,30.74
2023-05-18T20:34:41.193Z,30.65
2023-05-18T20:37:10.924Z,30.70
2023-05-18T20:39:40.552Z,30.89
2023-05-18T20:42:12.767Z,30.75
2023-05-18T20:44:46.556Z,30.94
2023-05-18T20:47:14.752Z,30.96
2023-05-18T20:49:44.533Z,30.77
2023-05-18T20:52:11.473Z,30.87
2023-05-18T20:54:38.454Z,31.09
2023-05-18T20:57:05.490Z,30.91
2023-05-18T20:59:32.484Z,31.20
2023-05-18T21:01:59.516Z,31.11
2023-05-18T21:04:26.466Z,31.23
2023-05-18T21:06:53.519Z,31.30
2023-05-18T21:09:20.705Z,31.36
2023-05-18T21:11:48.105Z,31.34
2023-05-18T21:14:15.535Z,31.26
2023-05-18T21:16:42.509Z,31.49
2023-05-18T21:19:09.596Z,31.76
2023-05-18T21:21:36.573Z,31.93
2023-05-18T21:24:04.933Z,31.96
2023-05-18T21:26:31.896Z,32.21
2023-05-18T21:28:58.757Z,32.42
2023-05-18T21:31:26.197Z,32.20
2023-05-18T21:33:53.130Z,32.51
2023-05-18T21:36:33.911Z,32.65
2023-05-18T21:39:05.469Z,32.58
2023-05-18T21:41:33.369Z,32.73
2023-05-18T21:44:00.340Z,32.55
2023-05-18T21:46:27.617Z,32.68
2023-05-18T21:48:54.490Z,32.66
2023-05-18T21:51:21.705Z,33.02
2023-05-18T21:53:48.613Z,33.25
2023-05-18T21:56:15.816Z,33.74
2023-05-18T21:58:42.668Z,33.93
2023-05-18T22:01:09.586Z,33.82
2023-05-18T22:03:36.554Z,33.99
2023-05-18T22:06:03.782Z,34.42
2023-05-18T22:08:31.257Z,34.58
2023-05-18T22:10:58.096Z,34.52
2023-05-18T22:13:25.056Z,34.74
2023-05-18T22:15:54.653Z,34.80
2023-05-18T22:18:23.599Z,34.95
2023-05-18T22:20:50.496Z,35.11
2023-05-18T22:23:17.356Z,35.31
2023-05-18T22:25:45.583Z,35.63
2023-05-18T22:28:12.436Z,35.73
2023-05-18T22:30:40.096Z,36.08
2023-05-18T22:33:06.989Z,36.23
2023-05-18T22:35:36.551Z,36.65
2023-05-18T22:38:03.571Z,36.74
2023-05-18T22:40:30.776Z,36.90
2023-05-18T22:42:58.124Z,37.10
2023-05-18T22:45:25.072Z,37.11
2023-05-18T22:47:52.776Z,37.42
2023-05-18T22:50:22.114Z,37.36
2023-05-18T22:52:50.578Z,37.46
2023-05-18T22:55:17.441Z,37.83
2023-05-18T22:57:45.136Z,37.59
2023-05-18T23:00:14.367Z,37.89
2023-05-18T23:02:42.648Z,37.80
2023-05-18T23:05:10.148Z,37.88
2023-05-18T23:07:37.677Z,37.97
2023-05-18T23:10:09.324Z,38.15
2023-05-18T23:12:36.673Z,38.26
2023-05-18T23:15:07.528Z,38.19
2023-05-18T23:17:39.136Z,38.08
2023-05-18T23:20:11.354Z,38.33
2023-05-18T23:22:38.261Z,38.13
2023-05-18T23:25:08.437Z,38.10
2023-05-18T23:27:38.195Z,38.17
2023-05-18T23:30:06.119Z,38.16
2023-05-18T23:32:33.980Z,38.44
2023-05-18T23:35:01.360Z,38.29
2023-05-18T23:37:30.862Z,38.31
2023-05-18T23:40:02.261Z,38.73
2023-05-18T23:42:29.913Z,38.58
2023-05-18T23:44:57.300Z,38.92
2023-05-18T23:47:26.761Z,38.83
2023-05-18T23:49:56.977Z,38.93
2023-05-18T23:52:29.051Z,39.26
2023-05-18T23:54:58.546Z,39.04
2023-05-18T23:57:25.588Z,39.20
2023-05-18T23:59:52.850Z,39.20
